createdAt,value
2018-12-06T00:02:01.165Z,3.25
2018-12-06T00:04:30.318Z,3.17
2018-12-06T00:06:59.566Z,3.02
2018-12-06T00:09:28.786Z,2.85
2018-12-06T00:11:57.958Z,2.92
2018-12-06T00:14:27.261Z,2.92
2018-12-06T00:16:57.021Z,3.10
2018-12-06T00:19:26.171Z,2.98
2018-12-06T00:21:55.436Z,3.27
2018-12-06T00:24:24.698Z,2.85
2018-12-06T00:26:54.453Z,2.55
2018-12-06T00:29:23.603Z,2.75
2018-12-06T00:31:52.775Z,2.95
2018-12-06T00:34:21.997Z,3.15
2018-12-06T00:36:51.211Z,2.67
2018-12-06T00:39:20.376Z,2.17
2018-12-06T00:41:49.547Z,2.62
2018-12-06T00:44:18.767Z,2.92
2018-12-06T00:46:47.948Z,2.98
2018-12-06T00:49:17.113Z,3.05
2018-12-06T00:51:46.386Z,2.62
2018-12-06T00:54:15.550Z,2.22
2018-12-06T00:56:44.781Z,1.67
2018-12-06T00:59:13.967Z,2.77
2018-12-06T01:01:43.151Z,2.83
2018-12-06T01:04:12.635Z,2.50
2018-12-06T01:06:41.858Z,3.05
2018-12-06T01:09:11.023Z,3.50
2018-12-06T01:11:40.398Z,3.12
2018-12-06T01:14:09.586Z,3.22
2018-12-06T01:16:38.773Z,3.52
2018-12-06T01:19:07.955Z,2.67
2018-12-06T01:21:37.149Z,3.05
2018-12-06T01:24:06.410Z,2.83
2018-12-06T01:26:35.654Z,3.02
2018-12-06T01:29:04.910Z,2.52
2018-12-06T01:31:34.262Z,3.42
2018-12-06T01:34:03.540Z,3.33
2018-12-06T01:36:32.723Z,3.10
2018-12-06T01:39:01.911Z,2.98
2018-12-06T01:41:31.095Z,2.77
2018-12-06T01:44:00.326Z,3.05
2018-12-06T01:46:29.719Z,2.70
2018-12-06T01:48:58.900Z,2.37
2018-12-06T01:51:28.143Z,2.80
2018-12-06T01:53:57.307Z,2.95
2018-12-06T01:56:26.484Z,2.42
2018-12-06T01:58:55.659Z,3.02
2018-12-06T02:01:24.839Z,2.95
2018-12-06T02:03:54.031Z,2.77
2018-12-06T02:06:23.328Z,1.90
2018-12-06T02:08:52.511Z,3.00
2018-12-06T02:11:21.796Z,2.98
2018-12-06T02:13:50.959Z,2.77
2018-12-06T02:16:20.342Z,1.90
2018-12-06T02:18:49.507Z,2.80
2018-12-06T02:21:18.811Z,2.50
2018-12-06T02:23:47.979Z,2.40
2018-12-06T02:26:17.163Z,2.72
2018-12-06T02:28:46.413Z,2.80
2018-12-06T02:31:15.703Z,3.20
2018-12-06T02:33:44.856Z,3.10
2018-12-06T02:36:14.188Z,2.98
2018-12-06T02:38:43.351Z,2.58
2018-12-06T02:41:12.524Z,3.08
2018-12-06T02:43:41.745Z,3.02
2018-12-06T02:46:11.046Z,3.22
2018-12-06T02:48:40.231Z,3.05
2018-12-06T02:51:09.384Z,3.10
2018-12-06T02:53:38.570Z,3.10
2018-12-06T02:56:07.727Z,2.77
2018-12-06T02:58:37.008Z,2.65
2018-12-06T03:01:06.279Z,3.10
2018-12-06T03:03:35.482Z,2.60
2018-12-06T03:06:04.845Z,3.20
2018-12-06T03:08:34.139Z,2.80
2018-12-06T03:11:03.318Z,3.00
2018-12-06T03:13:32.495Z,2.90
2018-12-06T03:16:01.731Z,2.80
2018-12-06T03:18:30.966Z,2.83
2018-12-06T03:21:00.126Z,2.80
2018-12-06T03:23:29.363Z,2.75
2018-12-06T03:25:58.616Z,3.33
2018-12-06T03:28:27.847Z,2.70
2018-12-06T03:30:57.027Z,2.92
2018-12-06T03:33:26.361Z,2.52
2018-12-06T03:35:55.575Z,3.05
2018-12-06T03:38:24.756Z,3.25
2018-12-06T03:40:53.931Z,2.60
2018-12-06T03:43:23.115Z,3.30
2018-12-06T03:45:52.325Z,3.20
2018-12-06T03:48:21.549Z,3.10
2018-12-06T03:50:50.774Z,3.42
2018-12-06T03:53:20.040Z,3.50
2018-12-06T03:55:49.202Z,3.25
2018-12-06T03:58:18.384Z,3.30
2018-12-06T04:00:47.555Z,3.02
2018-12-06T04:03:16.737Z,3.00
2018-12-06T04:05:45.916Z,2.85
2018-12-06T04:08:15.110Z,2.85
2018-12-06T04:10:44.271Z,3.27
2018-12-06T04:13:13.495Z,3.20
2018-12-06T04:15:42.768Z,3.60
2018-12-06T04:18:12.011Z,3.15
2018-12-06T04:20:41.172Z,2.17
2018-12-06T04:23:10.407Z,3.17
2018-12-06T04:25:39.585Z,3.22
2018-12-06T04:28:08.879Z,3.42
2018-12-06T04:30:38.042Z,3.02
2018-12-06T04:33:07.214Z,3.20
2018-12-06T04:35:36.385Z,2.77
2018-12-06T04:38:05.591Z,3.27
2018-12-06T04:40:34.775Z,2.67
2018-12-06T04:43:03.955Z,3.40
2018-12-06T04:45:33.131Z,2.65
2018-12-06T04:48:02.507Z,2.65
2018-12-06T04:50:31.670Z,3.50
2018-12-06T04:53:00.914Z,3.02
2018-12-06T04:55:30.153Z,3.10
2018-12-06T04:57:59.477Z,3.47
2018-12-06T05:00:28.761Z,2.40
2018-12-06T05:02:57.944Z,3.58
2018-12-06T05:05:27.243Z,3.33
2018-12-06T05:07:56.445Z,2.90
2018-12-06T05:10:25.689Z,3.25
2018-12-06T05:12:54.950Z,3.22
2018-12-06T05:15:24.102Z,3.52
2018-12-06T05:17:53.282Z,3.30
2018-12-06T05:20:22.537Z,3.12
2018-12-06T05:22:51.912Z,3.10
2018-12-06T05:25:21.070Z,3.62
2018-12-06T05:27:50.251Z,3.90
2018-12-06T05:30:19.409Z,3.52
2018-12-06T05:32:48.583Z,3.20
2018-12-06T05:35:17.923Z,3.12
2018-12-06T05:37:47.111Z,3.70
2018-12-06T05:40:16.442Z,3.10
2018-12-06T05:42:45.702Z,3.15
2018-12-06T05:45:14.930Z,3.92
2018-12-06T05:47:44.139Z,2.77
2018-12-06T05:50:13.295Z,3.40
2018-12-06T05:52:42.555Z,3.50
2018-12-06T05:55:11.723Z,2.25
2018-12-06T05:57:40.878Z,3.85
2018-12-06T06:00:10.150Z,3.62
2018-12-06T06:02:39.317Z,4.10
2018-12-06T06:05:08.786Z,3.75
2018-12-06T06:07:37.966Z,2.85
2018-12-06T06:10:07.558Z,4.05
2018-12-06T06:12:36.731Z,4.10
2018-12-06T06:15:06.652Z,3.45
2018-12-06T06:17:35.813Z,4.10
2018-12-06T06:20:05.421Z,3.80
2018-12-06T06:22:34.583Z,4.25
2018-12-06T06:25:03.985Z,4.10
2018-12-06T06:27:33.338Z,4.45
2018-12-06T06:30:02.515Z,4.30
2018-12-06T06:32:31.823Z,4.00
2018-12-06T06:35:01.024Z,3.95
2018-12-06T06:37:30.178Z,4.45
2018-12-06T06:40:06.215Z,4.28
2018-12-06T06:42:35.470Z,4.03
2018-12-06T06:45:05.640Z,4.37
2018-12-06T06:47:34.810Z,3.85
2018-12-06T06:50:04.558Z,3.50
2018-12-06T06:52:33.727Z,4.22
2018-12-06T06:55:03.034Z,2.80
2018-12-06T06:57:32.201Z,4.70
2018-12-06T07:00:01.629Z,3.90
2018-12-06T07:02:30.798Z,4.95
2018-12-06T07:05:00.004Z,5.10
2018-12-06T07:07:29.183Z,4.05
2018-12-06T07:09:58.365Z,4.75
2018-12-06T07:12:34.303Z,4.70
2018-12-06T07:15:03.763Z,4.78
2018-12-06T07:17:32.973Z,3.75
2018-12-06T07:20:02.624Z,5.00
2018-12-06T07:22:31.778Z,4.33
2018-12-06T07:25:01.055Z,4.45
2018-12-06T07:27:30.236Z,5.05
2018-12-06T07:29:59.419Z,4.53
2018-12-06T07:32:28.598Z,4.37
2018-12-06T07:34:57.778Z,4.30
2018-12-06T07:37:26.938Z,4.97
2018-12-06T07:39:56.120Z,5.03
2018-12-06T07:42:25.436Z,5.25
2018-12-06T07:44:54.620Z,4.67
2018-12-06T07:47:23.778Z,4.15
2018-12-06T07:49:53.038Z,3.40
2018-12-06T07:52:22.190Z,5.20
2018-12-06T07:54:51.415Z,4.95
2018-12-06T07:57:20.702Z,4.95
2018-12-06T07:59:49.883Z,5.47
2018-12-06T08:02:19.037Z,4.12
2018-12-06T08:04:48.210Z,4.03
2018-12-06T08:07:17.588Z,8.30
2018-12-06T08:09:46.936Z,6.12
2018-12-06T08:12:16.099Z,4.30
2018-12-06T08:14:45.271Z,5.65
2018-12-06T08:17:14.434Z,4.75
2018-12-06T08:19:43.676Z,4.58
2018-12-06T08:22:12.936Z,4.85
2018-12-06T08:24:42.195Z,3.58
2018-12-06T08:27:11.366Z,4.60
2018-12-06T08:29:40.592Z,5.28
2018-12-06T08:32:09.782Z,5.40
2018-12-06T08:34:38.951Z,5.25
2018-12-06T08:37:08.772Z,5.00
2018-12-06T08:39:38.075Z,5.25
2018-12-06T08:42:08.072Z,5.42
2018-12-06T08:44:38.157Z,5.20
2018-12-06T08:47:07.455Z,4.15
2018-12-06T08:49:36.704Z,4.92
2018-12-06T08:52:06.042Z,5.35
2018-12-06T08:54:36.035Z,5.70
2018-12-06T08:57:06.014Z,5.10
2018-12-06T08:59:35.368Z,5.67
2018-12-06T09:02:04.899Z,4.72
2018-12-06T09:04:34.151Z,5.80
2018-12-06T09:07:03.491Z,4.50
2018-12-06T09:09:32.784Z,5.37
2018-12-06T09:12:02.099Z,5.75
2018-12-06T09:14:31.516Z,5.33
2018-12-06T09:17:00.814Z,5.17
2018-12-06T09:19:31.129Z,4.97
2018-12-06T09:22:00.491Z,5.10
2018-12-06T09:24:29.811Z,5.20
2018-12-06T09:26:59.203Z,5.33
2018-12-06T09:29:28.546Z,5.80
2018-12-06T09:31:57.922Z,5.42
2018-12-06T09:34:33.800Z,5.40
2018-12-06T09:37:03.233Z,5.62
2018-12-06T09:39:32.567Z,4.80
2018-12-06T09:42:02.028Z,5.35
2018-12-06T09:44:31.333Z,5.30
2018-12-06T09:47:00.852Z,3.60
2018-12-06T09:49:30.211Z,5.47
2018-12-06T09:52:00.618Z,4.87
2018-12-06T09:54:29.948Z,5.97
2018-12-06T09:56:59.399Z,6.15
2018-12-06T09:59:28.673Z,6.95
2018-12-06T10:01:57.991Z,5.58
2018-12-06T10:04:27.253Z,5.87
2018-12-06T10:06:56.675Z,5.53
2018-12-06T10:09:26.089Z,6.75
2018-12-06T10:11:55.390Z,5.95
2018-12-06T10:14:24.839Z,5.55
2018-12-06T10:16:54.367Z,5.15
2018-12-06T10:19:23.678Z,5.95
2018-12-06T10:21:53.154Z,5.70
2018-12-06T10:24:22.485Z,5.53
2018-12-06T10:26:51.744Z,6.33
2018-12-06T10:29:21.236Z,5.87
2018-12-06T10:31:50.551Z,5.55
2018-12-06T10:34:20.473Z,5.33
2018-12-06T10:36:49.834Z,6.20
2018-12-06T10:39:19.728Z,5.87
2018-12-06T10:41:49.788Z,5.65
2018-12-06T10:44:29.922Z,6.15
2018-12-06T10:46:59.263Z,5.75
2018-12-06T10:49:28.570Z,5.67
2018-12-06T10:51:58.087Z,5.53
2018-12-06T10:54:27.350Z,6.40
2018-12-06T10:56:57.228Z,5.70
2018-12-06T10:59:26.565Z,5.80
2018-12-06T11:02:01.227Z,6.15
2018-12-06T11:07:51.019Z,5.55
2018-12-06T11:10:20.207Z,6.12
2018-12-06T11:12:49.364Z,5.35
2018-12-06T11:15:18.549Z,4.97
2018-12-06T11:17:47.729Z,5.45
2018-12-06T11:20:16.923Z,5.83
2018-12-06T11:22:46.091Z,6.00
2018-12-06T11:25:15.440Z,5.47
2018-12-06T11:27:44.628Z,5.67
2018-12-06T11:30:13.827Z,6.17
2018-12-06T11:32:43.015Z,6.17
2018-12-06T11:35:12.371Z,5.70
2018-12-06T11:37:41.630Z,5.72
2018-12-06T11:40:10.906Z,5.85
2018-12-06T11:42:40.094Z,5.87
2018-12-06T11:45:09.456Z,5.85
2018-12-06T11:47:38.755Z,5.90
2018-12-06T11:50:08.844Z,5.15
2018-12-06T11:52:38.042Z,5.50
2018-12-06T11:55:07.527Z,3.95
2018-12-06T11:57:36.718Z,5.62
2018-12-06T12:00:06.646Z,4.90
2018-12-06T12:02:35.830Z,5.72
2018-12-06T12:05:05.494Z,5.90
2018-12-06T12:07:34.828Z,5.65
2018-12-06T12:10:10.968Z,5.30
2018-12-06T12:12:40.137Z,5.92
2018-12-06T12:15:09.723Z,5.85
2018-12-06T12:17:38.927Z,6.10
2018-12-06T12:20:10.127Z,6.37
2018-12-06T12:22:39.315Z,5.53
2018-12-06T12:25:08.580Z,5.85
2018-12-06T12:27:37.771Z,6.72
2018-12-06T12:30:08.095Z,5.70
2018-12-06T12:32:37.368Z,6.17
2018-12-06T12:35:06.794Z,6.37
2018-12-06T12:37:35.971Z,6.15
2018-12-06T12:40:08.195Z,5.50
2018-12-06T12:42:37.368Z,6.33
2018-12-06T12:45:07.586Z,5.92
2018-12-06T12:47:36.863Z,6.83
2018-12-06T12:50:08.426Z,6.85
2018-12-06T12:52:37.603Z,6.67
2018-12-06T12:55:07.075Z,6.70
2018-12-06T12:57:36.315Z,6.55
2018-12-06T13:00:06.867Z,7.40
2018-12-06T13:02:36.090Z,6.90
2018-12-06T13:05:05.995Z,6.22
2018-12-06T13:07:35.187Z,7.08
2018-12-06T13:10:04.767Z,7.10
2018-12-06T13:12:33.944Z,7.67
2018-12-06T13:15:03.194Z,6.72
2018-12-06T13:17:32.574Z,6.42
2018-12-06T13:20:01.748Z,7.22
2018-12-06T13:22:31.032Z,6.62
2018-12-06T13:25:00.207Z,7.37
2018-12-06T13:27:29.502Z,7.90
2018-12-06T13:29:58.946Z,7.53
2018-12-06T13:32:28.371Z,7.33
2018-12-06T13:34:57.639Z,8.18
2018-12-06T13:37:26.915Z,7.58
2018-12-06T13:39:56.323Z,7.47
2018-12-06T13:42:25.600Z,7.30
2018-12-06T13:44:54.767Z,6.72
2018-12-06T13:47:24.063Z,7.67
2018-12-06T13:49:53.304Z,6.92
2018-12-06T13:52:22.519Z,6.83
2018-12-06T13:54:51.720Z,7.15
2018-12-06T13:57:20.980Z,6.40
2018-12-06T13:59:50.203Z,6.80
2018-12-06T14:02:19.479Z,8.65
2018-12-06T14:04:48.715Z,8.10
2018-12-06T14:07:17.954Z,8.35
2018-12-06T14:09:47.145Z,9.00
2018-12-06T14:12:16.347Z,7.40
2018-12-06T14:14:45.539Z,8.00
2018-12-06T14:17:14.744Z,7.97
2018-12-06T14:19:43.987Z,8.88
2018-12-06T14:22:13.222Z,8.23
2018-12-06T14:24:42.410Z,5.05
2018-12-06T14:27:11.670Z,7.17
2018-12-06T14:29:40.867Z,6.85
2018-12-06T14:32:10.138Z,7.35
2018-12-06T14:34:46.159Z,8.08
2018-12-06T14:37:15.494Z,7.12
2018-12-06T14:39:44.826Z,8.10
2018-12-06T14:42:14.122Z,8.08
2018-12-06T14:44:43.549Z,8.43
2018-12-06T14:47:12.799Z,8.03
2018-12-06T14:49:41.996Z,8.53
2018-12-06T14:52:11.316Z,7.42
2018-12-06T14:54:40.543Z,7.58
2018-12-06T14:57:09.837Z,6.58
2018-12-06T14:59:39.008Z,8.08
2018-12-06T15:02:08.363Z,7.30
2018-12-06T15:04:37.603Z,8.53
2018-12-06T15:07:06.891Z,7.67
2018-12-06T15:09:36.186Z,9.70
2018-12-06T15:12:05.487Z,7.35
2018-12-06T15:14:34.743Z,8.80
2018-12-06T15:17:04.048Z,7.85
2018-12-06T15:19:33.222Z,8.50
2018-12-06T15:22:02.550Z,9.10
2018-12-06T15:24:31.867Z,7.05
2018-12-06T15:27:01.135Z,8.60
2018-12-06T15:29:30.348Z,7.35
2018-12-06T15:31:59.651Z,7.75
2018-12-06T15:34:28.989Z,7.62
2018-12-06T15:36:58.178Z,7.72
2018-12-06T15:39:27.379Z,7.42
2018-12-06T15:41:56.621Z,7.72
2018-12-06T15:44:25.828Z,7.55
2018-12-06T15:46:55.439Z,7.72
2018-12-06T15:49:24.651Z,7.08
2018-12-06T15:51:53.882Z,6.37
2018-12-06T15:54:23.067Z,5.75
2018-12-06T15:56:52.246Z,5.85
2018-12-06T15:59:21.546Z,5.58
2018-12-06T16:01:50.778Z,6.47
2018-12-06T16:04:20.009Z,5.87
2018-12-06T16:06:49.328Z,5.72
2018-12-06T16:09:18.533Z,6.00
2018-12-06T16:11:47.742Z,5.37
2018-12-06T16:14:17.039Z,6.97
2018-12-06T16:16:46.285Z,6.33
2018-12-06T16:19:15.660Z,6.60
2018-12-06T16:21:44.862Z,6.33
2018-12-06T16:24:14.075Z,6.10
2018-12-06T16:26:43.262Z,6.35
2018-12-06T16:29:12.476Z,7.03
2018-12-06T16:31:41.758Z,6.97
2018-12-06T16:34:11.085Z,6.28
2018-12-06T16:36:40.402Z,6.65
2018-12-06T16:39:09.822Z,6.20
2018-12-06T16:41:39.096Z,6.17
2018-12-06T16:44:08.414Z,5.58
2018-12-06T16:46:37.615Z,5.35
2018-12-06T16:49:10.137Z,5.37
2018-12-06T16:51:38.547Z,5.45
2018-12-06T16:54:07.992Z,5.15
2018-12-06T16:56:37.250Z,6.25
2018-12-06T16:59:06.932Z,6.80
2018-12-06T17:01:36.136Z,5.42
2018-12-06T17:04:05.564Z,5.05
2018-12-06T17:06:34.771Z,5.42
2018-12-06T17:09:06.044Z,6.12
2018-12-06T17:11:35.304Z,6.22
2018-12-06T17:14:04.857Z,5.53
2018-12-06T17:16:34.062Z,5.95
2018-12-06T17:19:06.315Z,5.25
2018-12-06T17:21:35.842Z,6.28
2018-12-06T17:24:05.155Z,5.78
2018-12-06T17:26:34.323Z,5.25
2018-12-06T17:29:03.912Z,5.20
2018-12-06T17:31:33.291Z,6.03
2018-12-06T17:34:02.692Z,5.47
2018-12-06T17:36:32.026Z,5.20
2018-12-06T17:39:01.296Z,6.65
2018-12-06T17:41:30.499Z,5.42
2018-12-06T17:43:59.781Z,5.67
2018-12-06T17:46:28.961Z,5.60
2018-12-06T17:48:58.182Z,5.55
2018-12-06T17:51:27.511Z,5.85
2018-12-06T17:53:56.724Z,5.60
2018-12-06T17:56:26.066Z,5.62
2018-12-06T17:58:55.307Z,4.45
2018-12-06T18:01:24.647Z,5.45
2018-12-06T18:03:54.011Z,5.42
2018-12-06T18:06:23.471Z,5.53
2018-12-06T18:08:52.718Z,4.90
2018-12-06T18:11:21.961Z,5.55
2018-12-06T18:13:51.238Z,5.08
2018-12-06T18:16:20.720Z,5.83
2018-12-06T18:18:49.989Z,5.20
2018-12-06T18:21:19.638Z,3.70
2018-12-06T18:23:48.902Z,4.15
2018-12-06T18:26:18.319Z,4.35
2018-12-06T18:28:47.659Z,4.95
2018-12-06T18:31:17.002Z,5.03
2018-12-06T18:33:46.412Z,5.03
2018-12-06T18:36:15.679Z,5.28
2018-12-06T18:38:44.934Z,4.28
2018-12-06T18:41:14.155Z,4.65
2018-12-06T18:43:43.426Z,4.22
2018-12-06T18:46:12.707Z,4.87
2018-12-06T18:48:41.955Z,3.92
2018-12-06T18:51:11.393Z,3.77
2018-12-06T18:53:40.682Z,3.60
2018-12-06T18:56:10.469Z,3.12
2018-12-06T18:58:39.908Z,3.87
2018-12-06T19:01:09.236Z,3.00
2018-12-06T19:03:38.399Z,3.22
2018-12-06T19:06:07.842Z,2.83
2018-12-06T19:08:37.358Z,3.37
2018-12-06T19:11:06.580Z,3.08
2018-12-06T19:13:35.775Z,5.17
2018-12-06T19:16:05.274Z,4.75
2018-12-06T19:18:34.659Z,4.30
2018-12-06T19:21:03.854Z,5.62
2018-12-06T19:23:33.096Z,5.40
2018-12-06T19:26:02.411Z,7.35
2018-12-06T19:28:31.587Z,5.65
2018-12-06T19:31:00.803Z,5.87
2018-12-06T19:33:30.068Z,6.78
2018-12-06T19:35:59.452Z,6.92
2018-12-06T19:38:28.799Z,7.30
2018-12-06T19:40:57.995Z,6.40
2018-12-06T19:43:27.246Z,8.68
2018-12-06T19:45:56.524Z,8.60
2018-12-06T19:48:27.299Z,6.53
2018-12-06T19:50:56.880Z,6.83
2018-12-06T19:53:26.101Z,4.92
2018-12-06T19:55:55.291Z,5.10
2018-12-06T19:58:24.463Z,5.17
2018-12-06T20:00:53.831Z,5.47
2018-12-06T20:03:23.006Z,5.85
2018-12-06T20:05:52.271Z,7.10
2018-12-06T20:08:21.563Z,6.50
2018-12-06T20:10:50.766Z,6.60
2018-12-06T20:13:20.003Z,7.25
2018-12-06T20:15:49.187Z,8.18
2018-12-06T20:18:18.362Z,7.47
2018-12-06T20:20:47.649Z,7.35
2018-12-06T20:23:16.822Z,7.25
2018-12-06T20:25:46.016Z,7.35
2018-12-06T20:28:15.186Z,7.17
2018-12-06T20:30:44.467Z,7.90
2018-12-06T20:33:13.642Z,7.12
2018-12-06T20:35:42.939Z,7.67
2018-12-06T20:38:12.110Z,7.33
2018-12-06T20:40:41.311Z,8.00
2018-12-06T20:43:10.484Z,8.98
2018-12-06T20:45:39.711Z,8.80
2018-12-06T20:48:08.991Z,8.40
2018-12-06T20:50:38.174Z,8.03
2018-12-06T20:53:07.347Z,8.50
2018-12-06T20:55:36.659Z,9.90
2018-12-06T20:58:05.826Z,9.03
2018-12-06T21:00:35.010Z,8.93
2018-12-06T21:03:04.262Z,9.98
2018-12-06T21:05:33.463Z,10.05
2018-12-06T21:08:02.764Z,10.10
2018-12-06T21:10:31.958Z,10.25
2018-12-06T21:13:01.233Z,10.25
2018-12-06T21:15:30.439Z,9.93
2018-12-06T21:17:59.615Z,9.80
2018-12-06T21:20:28.870Z,10.20
2018-12-06T21:22:58.139Z,9.35
2018-12-06T21:25:27.337Z,9.63
2018-12-06T21:27:57.090Z,10.05
2018-12-06T21:30:26.296Z,10.68
2018-12-06T21:32:55.467Z,10.85
2018-12-06T21:35:24.851Z,9.85
2018-12-06T21:37:54.034Z,9.30
2018-12-06T21:40:29.981Z,10.18
2018-12-06T21:42:59.156Z,10.48
2018-12-06T21:45:28.419Z,10.40
2018-12-06T21:47:57.603Z,10.03
2018-12-06T21:50:26.814Z,9.88
2018-12-06T21:52:55.978Z,9.58
2018-12-06T21:55:25.172Z,9.93
2018-12-06T21:57:54.362Z,9.63
2018-12-06T22:00:23.649Z,8.53
2018-12-06T22:02:52.814Z,8.15
2018-12-06T22:05:22.199Z,7.97
2018-12-06T22:07:51.398Z,8.00
2018-12-06T22:10:20.699Z,7.92
2018-12-06T22:12:49.867Z,7.55
2018-12-06T22:15:19.037Z,7.35
2018-12-06T22:17:48.230Z,7.33
2018-12-06T22:20:17.436Z,7.20
2018-12-06T22:22:46.710Z,7.72
2018-12-06T22:25:15.916Z,6.85
2018-12-06T22:27:45.113Z,6.60
2018-12-06T22:30:14.866Z,7.50
2018-12-06T22:32:44.038Z,6.50
2018-12-06T22:35:13.322Z,6.30
2018-12-06T22:37:42.895Z,6.45
2018-12-06T22:40:12.269Z,6.53
2018-12-06T22:42:42.481Z,7.20
2018-12-06T22:45:58.162Z,6.45
2018-12-06T22:48:27.563Z,6.20
2018-12-06T22:50:57.519Z,6.03
2018-12-06T22:53:26.939Z,6.12
2018-12-06T22:55:56.238Z,5.53
2018-12-06T22:58:25.488Z,5.70
2018-12-06T23:00:59.183Z,5.70
2018-12-06T23:03:28.630Z,6.00
2018-12-06T23:05:57.819Z,6.00
2018-12-06T23:08:27.095Z,6.00
2018-12-06T23:10:56.370Z,6.05
2018-12-06T23:13:25.627Z,5.75
2018-12-06T23:15:54.907Z,6.25
2018-12-06T23:18:24.170Z,5.67
2018-12-06T23:20:53.352Z,6.05
2018-12-06T23:23:22.524Z,6.22
2018-12-06T23:25:51.707Z,6.08
2018-12-06T23:28:20.891Z,6.20
2018-12-06T23:30:50.062Z,5.97
2018-12-06T23:33:19.269Z,5.85
2018-12-06T23:35:48.439Z,6.28
2018-12-06T23:38:17.622Z,5.58
2018-12-06T23:40:46.861Z,6.20
2018-12-06T23:43:16.130Z,6.15
2018-12-06T23:45:45.512Z,6.00
2018-12-06T23:48:14.771Z,6.65
2018-12-06T23:50:44.067Z,6.25
2018-12-06T23:53:13.253Z,5.65
2018-12-06T23:55:42.416Z,6.35
2018-12-06T23:58:11.601Z,6.37
